Time;durP1;ratioP1;P1;durP2;ratioP2;P2;SDS_P1;SDS_P2;PMS_P1;PMS_P2;Temp;Humidity;BMP_temperature;BMP_pressure;BME280_temperature;BME280_humidity;BME280_pressure;Samples;Min_cycle;Max_cycle;Signal;HPM_P1;HPM_P2
2021/06/13 00:00:18;;;;;;;6.97;4.40;;;;;;;18.09;67.36;99706.53;1791918;78;21054;-66
2021/06/13 00:02:45;;;;;;;6.47;3.92;;;;;;;18.07;67.43;99695.25;1790943;78;21070;-67
2021/06/13 00:05:13;;;;;;;7.55;4.60;;;;;;;18.05;67.43;99700.44;1788845;78;21117;-66
2021/06/13 00:07:40;;;;;;;6.28;4.12;;;;;;;18.00;67.59;99692.52;1773657;78;21036;-66
2021/06/13 00:10:09;;;;;;;6.03;3.92;;;;;;;17.99;67.65;99692.19;1769908;78;21584;-66
2021/06/13 00:12:36;;;;;;;8.30;4.25;;;;;;;17.94;67.66;99687.94;1789729;78;21089;-66
2021/06/13 00:15:07;;;;;;;7.08;3.90;;;;;;;17.93;67.79;99690.27;1792456;78;21147;-66
2021/06/13 00:17:34;;;;;;;6.05;3.83;;;;;;;17.97;67.91;99690.72;1792682;78;22464;-65
2021/06/13 00:20:00;;;;;;;7.50;4.15;;;;;;;18.01;68.10;99682.17;1792369;78;21073;-66
2021/06/13 00:22:27;;;;;;;6.62;4.03;;;;;;;18.06;68.14;99668.82;1786510;78;21576;-66
2021/06/13 00:24:53;;;;;;;5.90;3.72;;;;;;;18.05;68.05;99666.64;1792387;78;21085;-66
2021/06/13 00:27:19;;;;;;;9.63;4.03;;;;;;;18.04;67.97;99659.69;1791420;78;21647;-65
2021/06/13 00:29:46;;;;;;;7.22;4.17;;;;;;;18.01;68.07;99658.22;1790072;78;21042;-66
2021/06/13 00:32:13;;;;;;;8.05;4.30;;;;;;;17.99;68.29;99653.59;1768601;78;21651;-66
2021/06/13 00:34:39;;;;;;;7.78;3.95;;;;;;;18.01;68.17;99648.90;1790483;78;21121;-67
2021/06/13 00:37:06;;;;;;;8.50;3.98;;;;;;;18.08;67.94;99649.48;1794458;78;21038;-66
2021/06/13 00:39:34;;;;;;;5.42;3.55;;;;;;;18.12;67.78;99646.75;1792472;78;22671;-66
2021/06/13 00:42:03;;;;;;;7.40;4.22;;;;;;;18.14;67.70;99636.72;1793042;78;21100;-66
2021/06/13 00:44:29;;;;;;;9.18;4.22;;;;;;;18.13;67.71;99633.25;1792166;78;21106;-67
2021/06/13 00:46:55;;;;;;;7.83;4.72;;;;;;;18.12;67.67;99634.28;1791281;78;22133;-66
2021/06/13 00:49:22;;;;;;;9.23;4.60;;;;;;;18.09;67.67;99631.99;1790192;78;21085;-66
2021/06/13 00:51:50;;;;;;;6.45;3.95;;;;;;;18.05;67.77;99637.36;1746790;78;22149;-66
2021/06/13 00:54:17;;;;;;;7.10;4.20;;;;;;;18.05;67.83;99628.05;1774001;78;21109;-66
2021/06/13 00:56:44;;;;;;;6.50;4.20;;;;;;;18.08;67.72;99628.19;1810387;77;21077;-66
2021/06/13 00:59:11;;;;;;;7.62;4.47;;;;;;;18.09;67.67;99623.16;1765080;78;21580;-66
2021/06/13 01:01:38;;;;;;;7.65;3.85;;;;;;;18.12;67.76;99620.13;1813193;77;21073;-67
2021/06/13 01:04:06;;;;;;;7.58;4.70;;;;;;;18.10;67.73;99615.50;1816501;78;21097;-67
2021/06/13 01:07:04;;;;;;;6.70;4.33;;;;;;;18.06;67.71;99607.59;1788365;77;21111;-66
2021/06/13 01:09:35;;;;;;;6.97;4.50;;;;;;;18.02;67.73;99609.78;1814031;77;21170;-66
2021/06/13 01:12:12;;;;;;;9.30;5.20;;;;;;;17.96;67.79;99607.91;1816273;78;21050;-65
2021/06/13 01:15:03;;;;;;;5.85;3.80;;;;;;;17.95;67.78;99608.91;1789804;78;21093;-65
2021/06/13 01:17:53;;;;;;;7.35;4.05;;;;;;;17.98;67.71;99608.53;1815979;77;21118;-66
2021/06/13 01:20:31;;;;;;;7.20;4.90;;;;;;;17.96;67.77;99599.41;1814473;77;21081;-66
2021/06/13 01:23:19;;;;;;;7.78;4.15;;;;;;;17.95;67.81;99600.41;1813470;78;21070;-65
2021/06/13 01:25:57;;;;;;;8.40;4.95;;;;;;;17.90;67.99;99592.17;1796014;78;21168;-66
2021/06/13 01:28:57;;;;;;;7.20;4.40;;;;;;;17.85;68.04;99590.55;1815838;77;20991;-66
2021/06/13 01:31:34;;;;;;;6.40;4.62;;;;;;;17.79;68.18;99595.33;1813959;78;21216;-66
2021/06/13 01:34:03;;;;;;;7.10;4.58;;;;;;;17.70;68.46;99597.28;1791674;77;21509;-66
2021/06/13 01:36:32;;;;;;;7.30;4.62;;;;;;;17.69;68.52;99596.14;1779334;77;21089;-66
2021/06/13 01:38:59;;;;;;;6.90;3.95;;;;;;;17.72;68.46;99588.60;1786581;77;21105;-66
2021/06/13 01:41:29;;;;;;;7.17;4.50;;;;;;;17.75;68.44;99594.03;1788593;78;21120;-66
2021/06/13 01:43:57;;;;;;;6.97;4.95;;;;;;;17.75;68.53;99588.72;1814282;77;21140;-67
2021/06/13 01:46:25;;;;;;;8.53;5.35;;;;;;;17.74;68.56;99589.23;1790117;78;21074;-66
2021/06/13 01:48:53;;;;;;;8.73;4.95;;;;;;;17.70;68.65;99584.47;1814997;78;22417;-67
2021/06/13 01:51:20;;;;;;;8.55;4.87;;;;;;;17.68;68.75;99588.64;1815434;77;21026;-67
2021/06/13 01:53:47;;;;;;;9.28;5.40;;;;;;;17.65;68.83;99581.03;1813857;77;21046;-67
2021/06/13 01:56:16;;;;;;;7.17;4.28;;;;;;;17.66;68.79;99578.70;1815362;77;21115;-67
2021/06/13 01:58:46;;;;;;;8.53;4.17;;;;;;;17.71;68.77;99576.81;1764327;78;21149;-67
2021/06/13 02:01:17;;;;;;;7.78;5.08;;;;;;;17.76;68.74;99573.08;1811478;77;21029;-67
2021/06/13 02:03:50;;;;;;;7.42;4.90;;;;;;;17.79;68.75;99581.50;1813213;77;21089;-67
2021/06/13 02:06:34;;;;;;;7.40;5.08;;;;;;;17.77;68.73;99570.72;1791507;77;21089;-67
2021/06/13 02:09:01;;;;;;;8.55;4.58;;;;;;;17.76;68.78;99568.58;1814883;78;21069;-67
2021/06/13 02:11:29;;;;;;;8.45;4.95;;;;;;;17.76;68.72;99565.91;1816118;77;21682;-67
2021/06/13 02:13:57;;;;;;;8.15;4.70;;;;;;;17.74;68.66;99569.27;1814595;77;21034;-67
2021/06/13 02:16:25;;;;;;;9.35;4.75;;;;;;;17.74;68.59;99571.94;1775668;78;21085;-68
2021/06/13 02:18:55;;;;;;;7.47;4.75;;;;;;;17.77;68.60;99570.72;1811740;77;21101;-67
2021/06/13 02:21:22;;;;;;;7.87;4.58;;;;;;;17.78;68.61;99575.85;1786225;78;21097;-67
2021/06/13 02:23:49;;;;;;;7.50;4.97;;;;;;;17.79;68.65;99563.39;1788455;77;21536;-67
2021/06/13 02:26:15;;;;;;;8.68;5.62;;;;;;;17.81;68.75;99565.34;1813837;77;21092;-67
2021/06/13 02:28:47;;;;;;;7.62;4.97;;;;;;;17.78;68.77;99563.88;1813182;77;21093;-67
2021/06/13 02:31:13;;;;;;;7.05;4.80;;;;;;;17.76;68.86;99567.24;1788931;78;21113;-66
2021/06/13 02:33:43;;;;;;;8.03;4.35;;;;;;;17.74;68.97;99569.27;1813956;77;21164;-66
2021/06/13 02:36:10;;;;;;;7.60;5.22;;;;;;;17.78;69.05;99565.72;1814844;77;21584;-67
2021/06/13 02:38:38;;;;;;;8.08;4.90;;;;;;;17.87;69.03;99557.13;1784560;77;21108;-66
2021/06/13 02:41:06;;;;;;;7.17;4.90;;;;;;;17.93;68.96;99555.86;1789638;78;21077;-66
2021/06/13 02:43:33;;;;;;;8.05;5.17;;;;;;;17.97;68.99;99550.98;1816761;78;21061;-66
2021/06/13 02:45:59;;;;;;;8.65;5.10;;;;;;;17.99;69.00;99553.78;1812128;77;21834;-66
2021/06/13 02:48:26;;;;;;;7.90;4.67;;;;;;;18.02;68.92;99552.55;1787652;78;21137;-67
2021/06/13 02:50:53;;;;;;;8.15;5.17;;;;;;;18.05;68.97;99550.03;1814542;77;21431;-66
2021/06/13 02:53:44;;;;;;;8.38;4.58;;;;;;;18.09;68.86;99539.30;1784381;78;21133;-66
2021/06/13 02:56:48;;;;;;;7.15;4.17;;;;;;;18.15;68.76;99539.36;1814019;77;21138;-67
2021/06/13 02:59:47;;;;;;;7.58;4.80;;;;;;;18.22;68.71;99535.41;1788527;78;21734;-67
2021/06/13 03:02:16;;;;;;;8.65;5.22;;;;;;;18.30;68.71;99537.94;1813552;77;21545;-65
2021/06/13 03:04:43;;;;;;;10.53;5.87;;;;;;;18.32;68.78;99534.56;1763752;78;21572;-65
2021/06/13 03:07:14;;;;;;;7.72;5.25;;;;;;;18.35;68.79;99532.85;1813945;77;21050;-65
2021/06/13 03:09:39;;;;;;;9.73;5.58;;;;;;;18.38;68.72;99542.30;1813823;78;21069;-57
2021/06/13 03:12:08;;;;;;;8.98;5.28;;;;;;;18.42;68.58;99530.75;1760587;78;21085;-56
2021/06/13 03:14:39;;;;;;;7.87;5.40;;;;;;;18.48;68.40;99531.31;1814146;78;21125;-55
2021/06/13 03:17:05;;;;;;;7.90;4.78;;;;;;;18.52;68.35;99533.89;1787319;78;21062;-55
2021/06/13 03:19:32;;;;;;;7.33;5.00;;;;;;;18.52;68.45;99535.22;1789179;78;21089;-56
2021/06/13 03:21:58;;;;;;;6.50;4.58;;;;;;;18.49;68.48;99524.95;1815264;78;21303;-56
2021/06/13 03:24:26;;;;;;;9.23;4.83;;;;;;;18.47;68.64;99534.46;1812188;77;23120;-67
2021/06/13 03:26:53;;;;;;;8.45;4.47;;;;;;;18.47;68.75;99526.99;1815205;78;21053;-66
2021/06/13 03:29:20;;;;;;;7.40;4.50;;;;;;;18.48;68.90;99529.98;1787873;78;21096;-65
2021/06/13 03:31:49;;;;;;;8.98;4.90;;;;;;;18.53;68.68;99535.55;1785491;78;21583;-64
2021/06/13 03:34:15;;;;;;;9.50;4.75;;;;;;;18.55;68.62;99532.17;1786582;78;21080;-66
2021/06/13 03:36:42;;;;;;;7.08;4.75;;;;;;;18.59;68.76;99528.60;1788323;78;21080;-65
2021/06/13 03:39:09;;;;;;;7.47;4.67;;;;;;;18.59;68.87;99536.07;1815004;77;21061;-65
2021/06/13 03:41:36;;;;;;;11.80;5.17;;;;;;;18.61;68.78;99529.22;1814722;77;20995;-62
2021/06/13 03:44:04;;;;;;;7.80;4.62;;;;;;;18.62;68.45;99531.69;1788730;78;22871;-65
2021/06/13 03:46:31;;;;;;;7.35;4.58;;;;;;;18.63;68.31;99529.35;1785424;78;21104;-65
2021/06/13 03:48:58;;;;;;;9.35;4.83;;;;;;;18.73;68.31;99530.34;1785292;78;21149;-65
2021/06/13 03:51:25;;;;;;;7.87;5.05;;;;;;;18.80;68.19;99528.52;1784883;78;21097;-64
2021/06/13 03:53:54;;;;;;;6.72;4.50;;;;;;;18.87;68.10;99529.39;1814527;77;21049;-65
2021/06/13 03:56:24;;;;;;;7.45;4.60;;;;;;;18.92;67.87;99531.48;1782662;78;21089;-66
2021/06/13 03:58:50;;;;;;;7.08;4.60;;;;;;;18.92;67.49;99534.14;1813343;78;21068;-68
2021/06/13 04:01:18;;;;;;;8.35;4.42;;;;;;;18.92;67.31;99534.14;1811377;77;21120;-67
2021/06/13 04:03:53;;;;;;;8.20;4.78;;;;;;;18.89;67.54;99530.02;1812226;77;21425;-69
2021/06/13 04:06:21;;;;;;;7.35;4.75;;;;;;;18.95;67.71;99529.75;1800444;77;21021;-68
2021/06/13 04:08:48;;;;;;;7.15;4.83;;;;;;;19.05;67.41;99526.20;1815284;77;21124;-68
2021/06/13 04:11:15;;;;;;;8.20;4.75;;;;;;;19.15;67.35;99522.33;1814472;78;21168;-69
2021/06/13 04:13:42;;;;;;;8.70;4.25;;;;;;;19.21;67.32;99518.87;1782445;78;21134;-69
2021/06/13 04:16:08;;;;;;;7.20;4.58;;;;;;;19.25;67.60;99516.13;1814050;78;21356;-69
2021/06/13 04:18:36;;;;;;;7.37;4.75;;;;;;;19.31;67.35;99517.45;1814129;78;21124;-67
2021/06/13 04:21:04;;;;;;;7.08;4.53;;;;;;;19.33;66.98;99518.59;1813599;78;21034;-68
2021/06/13 04:23:31;;;;;;;7.47;4.70;;;;;;;19.33;66.97;99518.59;1815240;78;21423;-67
2021/06/13 04:25:58;;;;;;;9.85;6.78;;;;;;;19.37;67.05;99521.18;1811682;77;22157;-67
2021/06/13 04:31:11;;;;;;;9.60;5.95;;;;;;;19.59;66.44;99518.36;1864460;74;22782;-67
2021/06/13 04:33:38;;;;;;;10.72;7.42;;;;;;;19.60;66.29;99523.49;1846328;75;21149;-68
2021/06/13 04:36:06;;;;;;;12.15;7.65;;;;;;;19.64;66.14;99517.23;1832755;76;21834;-69
2021/06/13 04:38:32;;;;;;;11.53;6.40;;;;;;;19.67;66.22;99519.50;1808631;77;22315;-67
2021/06/13 04:41:00;;;;;;;9.33;6.03;;;;;;;19.72;66.11;99523.71;1846840;75;21054;-69
2021/06/13 04:43:26;;;;;;;13.95;7.00;;;;;;;19.71;65.46;99520.72;1841718;75;21105;-69
2021/06/13 04:45:53;;;;;;;9.05;5.78;;;;;;;19.74;65.75;99516.31;1845141;75;21089;-69
2021/06/13 04:48:20;;;;;;;7.92;5.35;;;;;;;19.82;65.71;99513.48;1813214;77;21131;-69
2021/06/13 04:50:46;;;;;;;8.45;4.83;;;;;;;19.92;65.31;99509.56;1845055;75;21042;-69
2021/06/13 04:53:51;;;;;;;8.50;5.70;;;;;;;19.97;65.43;99503.94;1841554;77;21048;-63
2021/06/13 04:56:48;;;;;;;8.88;5.80;;;;;;;20.00;65.45;99504.84;1730678;81;21601;-61
2021/06/13 04:59:14;;;;;;;;;;;;;;;19.99;64.50;99511.23;1733970;81;21072;-65
2021/06/13 05:01:41;;;;;;;;;;;;;;;20.00;64.96;99510.70;1809937;77;20787;-68
2021/06/13 05:04:08;;;;;;;10.28;5.83;;;;;;;19.95;64.55;99510.50;1845191;75;20345;-68
2021/06/13 05:06:34;;;;;;;7.78;4.97;;;;;;;19.95;64.67;99513.17;1810673;75;21049;-67
2021/06/13 05:09:00;;;;;;;9.73;5.65;;;;;;;20.06;64.85;99503.22;1809976;76;21552;-65
2021/06/13 05:11:27;;;;;;;9.93;6.00;;;;;;;20.16;64.21;99499.61;1844039;75;21065;-68
2021/06/13 05:13:56;;;;;;;8.30;5.25;;;;;;;20.22;63.95;99509.97;1843966;76;21119;-68
2021/06/13 05:16:22;;;;;;;10.70;5.87;;;;;;;20.26;63.94;99505.87;1847811;77;21092;-67
2021/06/13 05:18:48;;;;;;;7.97;5.28;;;;;;;20.31;64.26;99510.07;1844069;75;21041;-67
2021/06/13 05:21:15;;;;;;;9.23;5.08;;;;;;;20.37;63.70;99507.88;1843079;76;21610;-68
2021/06/13 05:23:41;;;;;;;6.37;4.20;;;;;;;20.44;63.45;99503.86;1815226;78;21085;-65
2021/06/13 05:26:08;;;;;;;9.50;5.30;;;;;;;20.51;63.30;99500.69;1810252;77;22084;-68
2021/06/13 05:28:34;;;;;;;7.87;5.80;;;;;;;20.62;62.42;99499.73;1744942;80;21074;-68
2021/06/13 05:31:01;;;;;;;8.43;5.37;;;;;;;20.70;62.42;99500.34;1768685;79;21525;-67
2021/06/13 05:33:28;;;;;;;9.40;5.78;;;;;;;20.77;62.77;99497.13;1794760;78;21078;-66
2021/06/13 05:35:56;;;;;;;8.05;5.33;;;;;;;20.84;62.84;99500.30;1827735;76;21034;-67
2021/06/13 05:38:23;;;;;;;8.80;5.03;;;;;;;20.90;62.24;99509.63;1833407;77;21092;-68
2021/06/13 05:40:49;;;;;;;7.75;5.55;;;;;;;20.95;62.02;99506.33;1828539;76;22345;-68
2021/06/13 05:43:16;;;;;;;7.03;4.72;;;;;;;21.03;62.08;99511.94;1829416;77;21592;-70
2021/06/13 05:45:43;;;;;;;11.68;7.40;;;;;;;21.11;61.88;99501.81;1812472;77;21149;-69
2021/06/13 05:48:10;;;;;;;16.02;9.68;;;;;;;21.25;61.24;99505.26;1830659;76;21070;-70
2021/06/13 05:50:37;;;;;;;15.88;9.65;;;;;;;21.37;60.76;99511.25;1829450;77;21043;-69
2021/06/13 05:53:03;;;;;;;9.95;6.58;;;;;;;21.42;60.29;99502.89;1811503;77;21671;-66
2021/06/13 05:55:30;;;;;;;8.08;4.97;;;;;;;21.50;60.30;99506.69;1830325;76;21142;-66
2021/06/13 05:57:57;;;;;;;7.05;5.20;;;;;;;21.56;60.17;99497.48;1817184;75;22388;-65
2021/06/13 06:00:33;;;;;;;10.85;5.20;;;;;;;21.59;59.94;99500.55;1813419;77;21069;-64
2021/06/13 06:02:59;;;;;;;9.63;4.42;;;;;;;21.63;60.19;99495.58;1834940;77;21811;-64
2021/06/13 06:05:26;;;;;;;8.43;4.62;;;;;;;21.68;59.53;99493.06;1833347;77;21065;-62
2021/06/13 06:07:53;;;;;;;6.58;4.35;;;;;;;21.68;59.11;99485.84;1828743;77;21073;-63
2021/06/13 06:10:21;;;;;;;8.15;4.60;;;;;;;21.73;59.27;99493.77;1812545;77;21164;-61
2021/06/13 06:12:48;;;;;;;7.50;4.08;;;;;;;21.75;58.90;99495.17;1831087;76;21062;-61
2021/06/13 06:15:19;;;;;;;6.42;4.25;;;;;;;21.84;58.14;99487.70;1831061;76;21129;-61
2021/06/13 06:17:46;;;;;;;7.03;4.33;;;;;;;21.97;57.86;99493.45;1830764;76;21014;-61
2021/06/13 06:20:14;;;;;;;8.53;5.60;;;;;;;22.04;56.23;99488.36;1806357;77;21050;-66
2021/06/13 06:22:41;;;;;;;6.00;3.80;;;;;;;22.09;56.49;99487.70;1830002;76;21093;-70
2021/06/13 06:25:13;;;;;;;5.87;4.25;;;;;;;22.15;56.20;99491.34;1830663;76;21065;-73
2021/06/13 06:27:41;;;;;;;7.35;4.65;;;;;;;22.18;55.82;99486.89;1831159;77;21908;-71
2021/06/13 06:30:12;;;;;;;6.45;4.20;;;;;;;22.25;56.99;99493.00;1832281;76;21104;-76
2021/06/13 06:32:38;;;;;;;6.20;3.77;;;;;;;22.32;56.47;99491.09;1832508;76;21132;-74
2021/06/13 06:35:07;;;;;;;6.12;3.98;;;;;;;22.39;55.24;99494.55;1828191;76;21054;-67
2021/06/13 06:37:35;;;;;;;5.87;4.17;;;;;;;22.45;55.37;99496.32;1809492;77;21092;-66
2021/06/13 06:40:04;;;;;;;7.08;3.90;;;;;;;22.51;52.92;99493.79;1830539;76;21486;-64
2021/06/13 06:42:32;;;;;;;8.55;4.10;;;;;;;22.53;53.27;99490.39;1828054;76;21086;-67
2021/06/13 06:45:03;;;;;;;5.97;3.62;;;;;;;22.55;52.81;99496.34;1828947;76;21105;-70
2021/06/13 06:47:36;;;;;;;5.67;3.02;;;;;;;22.57;52.23;99499.61;1802301;76;21684;-70
2021/06/13 06:50:04;;;;;;;6.17;3.30;;;;;;;22.57;52.48;99503.10;1831167;76;21091;-69
2021/06/13 06:52:30;;;;;;;4.92;3.22;;;;;;;22.57;51.79;99503.63;1810902;76;21105;-67
2021/06/13 06:54:58;;;;;;;5.87;3.20;;;;;;;22.56;51.28;99500.64;1835431;75;21292;-66
2021/06/13 06:57:26;;;;;;;7.05;3.47;;;;;;;22.58;52.01;99502.60;1831727;76;21065;-66
2021/06/13 06:59:53;;;;;;;6.25;3.45;;;;;;;22.63;52.14;99496.05;1828572;76;21555;-64
2021/06/13 07:02:20;;;;;;;5.60;3.30;;;;;;;22.72;51.75;99496.03;1830123;76;22467;-67
2021/06/13 07:04:47;;;;;;;6.22;4.03;;;;;;;22.81;51.17;99503.24;1830976;76;22439;-63
2021/06/13 07:07:14;;;;;;;5.30;3.37;;;;;;;22.87;50.94;99502.89;1810867;77;21020;-64
2021/06/13 07:09:40;;;;;;;5.55;3.65;;;;;;;22.91;50.70;99501.38;1829937;77;21038;-65
2021/06/13 07:12:09;;;;;;;4.50;2.92;;;;;;;22.94;50.63;99503.08;1831740;76;21357;-65
2021/06/13 07:14:35;;;;;;;7.37;4.08;;;;;;;22.98;50.94;99503.45;1813757;76;21586;-68
2021/06/13 07:17:02;;;;;;;5.72;3.58;;;;;;;23.01;50.84;99490.93;1806505;76;22101;-68
2021/06/13 07:19:29;;;;;;;6.17;3.77;;;;;;;23.06;50.98;99499.14;1825399;76;21639;-68
2021/06/13 07:21:56;;;;;;;5.80;3.17;;;;;;;23.09;50.80;99485.28;1830397;76;21568;-67
2021/06/13 07:24:22;;;;;;;5.92;3.98;;;;;;;23.12;51.49;99492.89;1830931;76;21132;-68
2021/06/13 07:26:49;;;;;;;7.60;3.50;;;;;;;23.17;52.08;99487.66;1831297;76;21129;-69
2021/06/13 07:29:15;;;;;;;5.75;3.67;;;;;;;23.24;51.62;99484.06;1830162;75;22048;-70
2021/06/13 07:31:43;;;;;;;11.08;3.83;;;;;;;23.32;52.59;99487.78;1829360;76;21115;-69
2021/06/13 07:34:10;;;;;;;9.05;3.92;;;;;;;23.38;50.99;99484.16;1832167;76;21015;-66
2021/06/13 07:36:38;;;;;;;6.15;4.00;;;;;;;23.42;51.33;99489.38;1832237;76;21145;-66
2021/06/13 07:39:06;;;;;;;7.05;4.25;;;;;;;23.44;51.25;99484.59;1795605;78;21105;-63
2021/06/13 07:41:32;;;;;;;8.68;3.55;;;;;;;23.49;51.22;99482.58;1797216;77;21273;-64
2021/06/13 07:43:59;;;;;;;8.38;4.08;;;;;;;23.52;51.58;99484.80;1784392;79;21146;-68
2021/06/13 07:46:26;;;;;;;5.83;3.87;;;;;;;23.57;51.26;99480.91;1755294;80;21136;-66
2021/06/13 07:48:52;;;;;;;5.83;3.90;;;;;;;23.61;51.57;99485.28;1762440;79;21158;-65
2021/06/13 07:51:19;;;;;;;7.33;4.17;;;;;;;23.68;51.35;99482.77;1759022;78;21089;-67
2021/06/13 07:53:46;;;;;;;5.75;3.92;;;;;;;23.76;50.58;99488.34;1789923;78;21090;-74
2021/06/13 07:56:13;;;;;;;6.50;4.05;;;;;;;23.84;51.05;99489.38;1769864;78;21114;-65
2021/06/13 07:58:40;;;;;;;7.03;4.22;;;;;;;23.92;50.00;99478.30;1795300;78;21066;-67
2021/06/13 08:01:08;;;;;;;7.72;3.83;;;;;;;24.00;50.54;99484.36;1790770;79;21612;-67
2021/06/13 08:03:40;;;;;;;6.03;3.62;;;;;;;24.07;50.14;99477.00;1798038;79;21010;-67
2021/06/13 08:06:07;;;;;;;5.72;3.65;;;;;;;24.16;50.18;99476.11;1774156;79;21123;-65
2021/06/13 08:08:34;;;;;;;5.70;3.70;;;;;;;24.24;49.52;99485.17;1799078;78;21117;-65
2021/06/13 08:11:01;;;;;;;6.03;3.62;;;;;;;24.28;49.86;99487.70;1736536;79;21110;-62
2021/06/13 08:13:28;;;;;;;7.15;3.47;;;;;;;24.30;47.85;99494.45;1797523;77;21027;-61
2021/06/13 08:15:54;;;;;;;6.78;4.40;;;;;;;24.32;47.97;99491.54;1767218;79;21065;-62
2021/06/13 08:18:21;;;;;;;5.92;3.87;;;;;;;24.33;47.48;99483.78;1795704;78;21815;-60
2021/06/13 08:20:48;;;;;;;6.00;3.80;;;;;;;24.33;47.92;99488.34;1763398;79;21114;-64
2021/06/13 08:23:14;;;;;;;5.72;3.30;;;;;;;24.26;47.44;99493.30;1776217;79;21129;-63
2021/06/13 08:25:41;;;;;;;5.17;3.17;;;;;;;24.22;48.14;99482.72;1721312;79;21144;-64
2021/06/13 08:28:07;;;;;;;6.72;4.12;;;;;;;24.30;48.65;99486.93;1760303;79;21513;-64
2021/06/13 08:30:35;;;;;;;6.12;3.85;;;;;;;24.41;48.20;99485.27;1772135;79;21044;-65
2021/06/13 08:33:01;;;;;;;5.97;4.22;;;;;;;24.49;47.98;99486.26;1797117;78;21074;-62
2021/06/13 08:35:28;;;;;;;5.65;3.42;;;;;;;24.53;47.64;99482.56;1764321;80;21091;-62
2021/06/13 08:37:54;;;;;;;5.60;3.72;;;;;;;24.55;46.58;99486.70;1799524;78;21090;-64
2021/06/13 08:40:21;;;;;;;5.90;4.00;;;;;;;24.56;47.28;99476.75;1797851;78;21081;-63
2021/06/13 08:42:47;;;;;;;6.92;4.17;;;;;;;24.54;46.76;99477.48;1766231;79;21109;-60
2021/06/13 08:45:16;;;;;;;7.80;4.30;;;;;;;24.54;47.88;99483.67;1776525;79;22332;-61
2021/06/13 08:47:44;;;;;;;6.83;3.55;;;;;;;24.58;47.62;99475.98;1765988;79;22325;-60
2021/06/13 08:50:12;;;;;;;7.55;4.50;;;;;;;24.58;46.91;99474.13;1761694;79;21119;-63
2021/06/13 08:52:38;;;;;;;7.15;3.70;;;;;;;24.55;46.52;99484.55;1734355;80;21176;-67
2021/06/13 08:55:07;;;;;;;6.05;3.87;;;;;;;24.51;47.22;99471.23;1759099;79;21160;-69
2021/06/13 08:57:34;;;;;;;6.78;3.85;;;;;;;24.46;47.59;99476.81;1760866;80;21185;-66
2021/06/13 09:00:01;;;;;;;6.47;4.15;;;;;;;24.42;48.26;99484.23;1762314;79;21078;-64
2021/06/13 09:02:28;;;;;;;6.35;4.60;;;;;;;24.39;48.97;99493.57;1759563;79;21102;-65
2021/06/13 09:04:54;;;;;;;5.87;3.90;;;;;;;24.35;49.59;99491.08;1766326;79;21664;-64
2021/06/13 09:07:23;;;;;;;5.67;3.62;;;;;;;24.26;49.67;99490.63;1788510;79;21384;-65
2021/06/13 09:09:53;;;;;;;6.47;3.90;;;;;;;24.19;50.12;99485.05;1796621;79;22913;-66
2021/06/13 09:12:20;;;;;;;7.10;5.15;;;;;;;24.09;49.92;99499.08;1763146;79;21533;-65
2021/06/13 09:14:55;;;;;;;6.97;5.03;;;;;;;23.86;52.83;99508.77;1799520;78;21078;-62
2021/06/13 09:17:29;;;;;;;7.12;5.08;;;;;;;23.49;54.18;99518.28;1765912;79;21082;-63
2021/06/13 09:20:04;;;;;;;8.93;5.58;;;;;;;23.18;55.70;99513.95;1755224;79;21146;-67
2021/06/13 09:22:30;;;;;;;8.30;5.97;;;;;;;22.99;57.19;99513.95;1792357;79;21093;-67
2021/06/13 09:25:10;;;;;;;8.88;6.00;;;;;;;22.92;56.71;99508.39;1765244;79;21101;-66
2021/06/13 09:27:38;;;;;;;8.38;6.22;;;;;;;22.90;58.22;99507.27;1741260;80;21062;-65
2021/06/13 09:30:06;;;;;;;10.32;5.92;;;;;;;23.03;57.27;99512.17;1773640;79;21737;-67
2021/06/13 09:33:12;;;;;;;6.42;5.47;;;;;;;23.06;56.92;99520.61;1789907;78;21122;-64
2021/06/13 09:35:40;;;;;;;8.43;6.00;;;;;;;23.05;58.04;99527.51;1788562;78;21067;-66
2021/06/13 09:38:21;;;;;;;8.53;5.90;;;;;;;22.90;58.29;99538.13;1791795;79;21067;-65
2021/06/13 09:41:10;;;;;;;9.63;6.03;;;;;;;22.73;59.54;99528.52;1763597;79;21114;-63
2021/06/13 09:43:56;;;;;;;11.10;7.30;;;;;;;22.52;60.73;99527.61;1792902;78;21133;-65
2021/06/13 09:46:25;;;;;;;8.38;5.90;;;;;;;22.43;62.11;99517.17;1786581;78;21141;-63
2021/06/13 09:49:07;;;;;;;10.15;6.45;;;;;;;22.48;61.84;99517.85;1763883;78;21440;-64
2021/06/13 09:51:38;;;;;;;8.08;6.40;;;;;;;22.54;62.23;99516.95;1761434;79;21113;-62
2021/06/13 09:54:06;;;;;;;9.58;6.85;;;;;;;22.53;62.05;99511.83;1786909;78;21497;-62
2021/06/13 09:56:41;;;;;;;8.40;6.58;;;;;;;22.52;62.14;99511.52;1789426;79;21143;-63
2021/06/13 09:59:16;;;;;;;9.03;7.12;;;;;;;22.49;62.70;99507.94;1785709;78;21636;-63
2021/06/13 10:01:48;;;;;;;9.68;7.30;;;;;;;22.57;63.11;99498.27;1792366;79;20986;-62
2021/06/13 10:04:24;;;;;;;9.18;6.78;;;;;;;22.73;63.62;99491.47;1810357;76;20975;-62
2021/06/13 10:06:53;;;;;;;10.15;8.10;;;;;;;22.82;64.40;99484.78;1801923;77;21140;-62
2021/06/13 10:09:22;;;;;;;9.30;7.53;;;;;;;22.98;64.36;99494.90;1831752;77;21046;-61
2021/06/13 10:11:50;;;;;;;11.33;7.65;;;;;;;23.13;63.66;99491.02;1816078;77;21137;-60
2021/06/13 10:14:18;;;;;;;9.75;7.08;;;;;;;23.24;62.49;99482.73;1808310;76;21140;-61
2021/06/13 10:16:51;;;;;;;8.45;6.95;;;;;;;23.27;61.22;99472.88;1809501;76;21082;-61
2021/06/13 10:19:21;;;;;;;10.55;6.87;;;;;;;23.22;62.47;99470.88;1829607;76;21065;-62
2021/06/13 10:21:55;;;;;;;9.95;6.97;;;;;;;23.15;60.85;99468.28;1803308;77;21128;-63
2021/06/13 10:24:25;;;;;;;6.47;4.40;;;;;;;23.05;59.96;99467.98;1828493;77;22850;-62
2021/06/13 10:26:58;;;;;;;5.80;4.12;;;;;;;22.79;56.94;99473.97;1830657;76;21552;-63
2021/06/13 10:29:28;;;;;;;5.22;3.05;;;;;;;22.50;58.34;99486.81;1816637;76;20884;-65
2021/06/13 10:31:57;;;;;;;5.85;3.45;;;;;;;22.06;61.74;99519.75;1824036;77;21062;-66
2021/06/13 10:34:27;;;;;;;5.60;3.17;;;;;;;21.62;62.61;99501.46;1822487;76;22363;-61
2021/06/13 10:36:56;;;;;;;5.53;2.80;;;;;;;21.36;63.35;99513.64;1826160;77;21135;-64
2021/06/13 10:39:30;;;;;;;6.10;3.52;;;;;;;21.17;64.28;99536.27;1822222;77;21063;-63
2021/06/13 10:41:57;;;;;;;5.78;3.42;;;;;;;20.97;64.60;99539.02;1822744;76;21070;-63
2021/06/13 10:44:28;;;;;;;4.50;2.60;;;;;;;20.81;65.01;99544.83;1792441;78;21105;-64
2021/06/13 10:47:16;;;;;;;5.35;2.90;;;;;;;20.71;66.06;99539.42;1765186;79;21107;-62
2021/06/13 10:49:42;;;;;;;4.40;2.37;;;;;;;20.68;66.17;99543.84;1746359;79;21019;-63
2021/06/13 10:52:24;;;;;;;5.37;2.77;;;;;;;20.64;65.54;99541.80;1786955;79;21072;-63
2021/06/13 10:54:56;;;;;;;6.20;2.60;;;;;;;20.57;65.43;99551.94;1826202;76;21077;-62
2021/06/13 10:57:33;;;;;;;5.05;2.55;;;;;;;20.51;66.33;99556.80;1832336;77;21097;-62
2021/06/13 11:00:08;;;;;;;5.55;2.40;;;;;;;20.51;66.95;99548.78;1810386;77;21109;-62
2021/06/13 11:02:40;;;;;;;5.17;1.87;;;;;;;20.64;66.75;99551.96;1806899;77;21154;-63
2021/06/13 11:05:08;;;;;;;5.58;2.30;;;;;;;20.69;65.70;99558.83;1810126;77;21034;-63
2021/06/13 11:07:52;;;;;;;4.83;2.30;;;;;;;20.69;65.98;99566.05;1808755;77;21065;-64
2021/06/13 11:10:19;;;;;;;7.40;1.80;;;;;;;20.74;66.29;99571.58;1831444;76;21544;-63
2021/06/13 11:14:31;;;;;;;3.98;1.75;;;;;;;21.09;65.31;99572.09;1836369;76;22793;-63
2021/06/13 11:16:59;;;;;;;3.77;1.60;;;;;;;21.20;63.46;99577.80;1807132;78;21018;-63
2021/06/13 11:19:34;;;;;;;3.60;1.40;;;;;;;21.29;63.25;99575.21;1806835;77;21096;-64
2021/06/13 11:22:25;;;;;;;2.80;1.27;;;;;;;21.40;61.97;99570.53;1777119;78;21822;-63
2021/06/13 11:24:51;;;;;;;3.12;1.20;;;;;;;21.51;60.29;99570.39;1806016;77;21045;-67
2021/06/13 11:27:18;;;;;;;5.47;1.40;;;;;;;21.57;57.57;99566.87;1805900;77;22682;-68
2021/06/13 11:29:57;;;;;;;3.15;1.35;;;;;;;21.60;56.16;99575.81;1808845;78;21025;-66
2021/06/13 11:32:52;;;;;;;3.30;1.30;;;;;;;21.63;56.79;99564.66;1806590;77;21321;-67
2021/06/13 11:35:34;;;;;;;2.98;1.02;;;;;;;21.73;56.02;99565.52;1806491;77;20997;-66
2021/06/13 11:38:16;;;;;;;3.70;1.30;;;;;;;21.82;57.25;99568.75;1806333;77;21104;-66
2021/06/13 11:40:55;;;;;;;4.03;1.50;;;;;;;21.89;54.92;99574.37;1806287;77;21108;-68
2021/06/13 11:43:32;;;;;;;3.85;1.35;;;;;;;21.87;52.75;99564.91;1805107;77;21100;-67
2021/06/13 11:46:05;;;;;;;2.77;1.10;;;;;;;21.80;53.86;99564.95;1767097;77;21045;-66
2021/06/13 11:48:39;;;;;;;3.35;1.10;;;;;;;21.77;54.80;99578.80;1807009;77;21089;-68
2021/06/13 11:51:13;;;;;;;2.67;1.15;;;;;;;21.80;54.48;99576.19;1804547;77;21157;-67